createdAt,value
2024-05-09T00:01:00.291Z,101189.43
2024-05-09T00:06:21.077Z,101186.20
2024-05-09T00:11:27.809Z,101190.48
2024-05-09T00:16:34.787Z,101188.46
2024-05-09T00:21:45.448Z,101181.10
2024-05-09T00:26:52.133Z,101178.73
2024-05-09T00:31:58.900Z,101181.13
2024-05-09T00:37:08.538Z,101187.30
2024-05-09T00:42:15.730Z,101184.91
2024-05-09T00:47:24.274Z,101180.48
2024-05-09T00:52:32.333Z,101180.31
2024-05-09T00:57:39.736Z,101180.48
2024-05-09T01:02:46.891Z,101171.25
2024-05-09T01:07:53.977Z,101169.20
2024-05-09T01:13:00.819Z,101171.08
2024-05-09T01:18:11.519Z,101163.71
2024-05-09T01:23:17.895Z,101165.57
2024-05-09T01:28:24.730Z,101159.42
2024-05-09T01:33:31.514Z,101163.67
2024-05-09T01:38:38.951Z,101162.63
2024-05-09T01:43:45.645Z,101168.05
2024-05-09T01:48:52.572Z,101170.42
2024-05-09T01:53:59.254Z,101175.51
2024-05-09T01:59:06.660Z,101177.52
2024-05-09T02:04:13.752Z,101175.96
2024-05-09T02:09:20.796Z,101174.90
2024-05-09T02:14:27.582Z,101175.39
2024-05-09T02:19:34.582Z,101177.92
2024-05-09T02:24:41.380Z,101180.98
2024-05-09T02:29:58.473Z,101177.86
2024-05-09T02:35:09.154Z,101179.69
2024-05-09T02:40:25.156Z,101179.27
2024-05-09T02:45:35.806Z,101177.45
2024-05-09T02:50:44.039Z,101181.45
2024-05-09T02:56:17.786Z,101179.98
2024-05-09T03:01:45.427Z,101181.09
2024-05-09T03:06:55.383Z,101186.28
2024-05-09T03:12:02.507Z,101187.52
2024-05-09T03:17:12.119Z,101187.91
2024-05-09T03:22:18.896Z,101195.44
2024-05-09T03:27:25.652Z,101194.48
2024-05-09T03:32:32.403Z,101203.73
2024-05-09T03:37:39.397Z,101207.92
2024-05-09T03:42:47.943Z,101204.69
2024-05-09T03:47:54.802Z,101205.19
2024-05-09T03:53:02.258Z,101206.21
2024-05-09T03:58:09.234Z,101205.71
2024-05-09T04:03:16.369Z,101208.80
2024-05-09T04:08:23.350Z,101206.56
2024-05-09T04:13:32.434Z,101209.26
2024-05-09T04:18:39.613Z,101210.27
2024-05-09T04:23:46.494Z,101212.81
2024-05-09T04:28:53.206Z,101214.48
2024-05-09T04:34:01.999Z,101211.62
2024-05-09T04:39:08.718Z,101208.88
2024-05-09T04:44:15.494Z,101215.18
2024-05-09T04:49:23.379Z,101218.67
2024-05-09T04:54:36.020Z,101219.80
2024-05-09T04:59:43.814Z,101223.50
2024-05-09T05:04:50.641Z,101221.17
2024-05-09T05:09:57.420Z,101216.95
2024-05-09T05:15:04.158Z,101206.55
2024-05-09T05:20:15.247Z,101205.92
2024-05-09T05:25:25.924Z,101201.85
2024-05-09T05:30:34.784Z,101201.34
2024-05-09T05:35:42.777Z,101198.59
2024-05-09T05:40:49.695Z,101203.04
2024-05-09T05:45:59.728Z,101201.95
2024-05-09T05:51:07.720Z,101197.64
2024-05-09T05:56:14.499Z,101198.41
2024-05-09T06:01:21.151Z,101202.91
2024-05-09T06:06:28.155Z,101204.48
2024-05-09T06:11:35.348Z,101204.21
2024-05-09T06:16:42.026Z,101204.81
2024-05-09T06:21:48.614Z,101209.80
2024-05-09T06:26:55.557Z,101215.92
2024-05-09T06:32:05.463Z,101221.42
2024-05-09T06:37:12.543Z,101216.75
2024-05-09T06:42:19.222Z,101212.07
2024-05-09T06:47:25.999Z,101213.54
2024-05-09T06:52:33.237Z,101206.01
2024-05-09T06:57:42.960Z,101206.70
2024-05-09T07:02:50.204Z,101204.25
2024-05-09T07:07:57.519Z,101210.98
2024-05-09T07:13:04.449Z,101212.64
2024-05-09T07:18:17.804Z,101200.84
2024-05-09T07:23:25.730Z,101196.81
2024-05-09T07:28:32.698Z,101193.79
2024-05-09T07:33:39.377Z,101192.84
2024-05-09T07:38:46.110Z,101197.95
2024-05-09T07:43:52.707Z,101195.45
2024-05-09T07:50:35.806Z,101193.87
2024-05-09T07:54:26.097Z,101192.27
2024-05-09T07:59:36.062Z,101187.70
2024-05-09T08:04:44.383Z,101187.44
2024-05-09T08:09:52.294Z,101186.43
2024-05-09T08:14:59.460Z,101189.73
2024-05-09T08:20:07.640Z,101195.29
2024-05-09T08:25:15.507Z,101191.33
2024-05-09T08:30:30.098Z,101196.45
2024-05-09T08:35:43.192Z,101193.77
2024-05-09T08:40:50.680Z,101190.89
2024-05-09T08:45:59.862Z,101191.36
2024-05-09T08:51:08.548Z,101184.82
2024-05-09T08:56:15.768Z,101182.21
2024-05-09T09:01:23.513Z,101180.90
2024-05-09T09:06:35.731Z,101180.02
2024-05-09T09:11:48.932Z,101183.20
2024-05-09T09:16:56.488Z,101184.83
2024-05-09T09:22:03.161Z,101190.48
2024-05-09T09:27:09.876Z,101186.96
2024-05-09T09:32:16.718Z,101190.72
2024-05-09T09:37:27.891Z,101188.75
2024-05-09T09:42:35.353Z,101189.36
2024-05-09T09:47:44.045Z,101183.94
2024-05-09T09:52:51.373Z,101177.41
2024-05-09T09:57:58.431Z,101177.53
2024-05-09T10:03:05.306Z,101177.17
2024-05-09T10:08:15.893Z,101165.67
2024-05-09T10:13:33.598Z,101157.72
2024-05-09T10:18:41.843Z,101160.29
2024-05-09T10:23:59.884Z,101159.23
2024-05-09T10:29:15.369Z,101159.63
2024-05-09T10:34:24.088Z,101154.58
2024-05-09T10:39:39.917Z,101149.75
2024-05-09T10:44:50.464Z,101145.56
2024-05-09T10:50:00.294Z,101140.33
2024-05-09T10:55:08.086Z,101133.86
2024-05-09T11:00:23.352Z,101128.14
2024-05-09T11:05:39.020Z,101123.56
2024-05-09T11:10:47.213Z,101122.52
2024-05-09T11:15:54.700Z,101121.85
2024-05-09T11:21:02.182Z,101122.70
2024-05-09T11:26:10.814Z,101117.60
2024-05-09T11:31:20.833Z,101113.73
2024-05-09T11:36:27.900Z,101106.46
2024-05-09T11:41:35.880Z,101099.87
2024-05-09T11:46:43.942Z,101097.32
2024-05-09T11:51:51.670Z,101091.32
2024-05-09T11:57:02.960Z,101083.42
2024-05-09T12:02:10.115Z,101086.91
2024-05-09T12:07:18.649Z,101081.36
2024-05-09T12:12:25.752Z,101082.85
2024-05-09T12:17:32.549Z,101079.34
2024-05-09T12:22:39.382Z,101078.31
2024-05-09T12:27:46.193Z,101070.19
2024-05-09T12:32:53.452Z,101065.59
2024-05-09T12:38:00.637Z,101059.30
2024-05-09T12:43:09.283Z,101065.10
2024-05-09T12:48:17.187Z,101063.25
2024-05-09T12:53:24.232Z,101057.36
2024-05-09T12:58:30.987Z,101044.00
2024-05-09T13:03:38.029Z,101038.52
2024-05-09T13:08:45.084Z,101031.86
2024-05-09T13:13:52.666Z,101017.66
2024-05-09T13:18:59.495Z,101009.25
2024-05-09T13:24:10.762Z,101004.00
2024-05-09T13:29:17.424Z,101011.20
2024-05-09T13:34:24.409Z,101001.80
2024-05-09T13:39:31.037Z,100990.77
2024-05-09T13:44:37.982Z,100994.10
2024-05-09T13:49:44.761Z,100989.75
2024-05-09T13:54:51.430Z,100986.05
2024-05-09T13:59:58.177Z,100976.29
2024-05-09T14:05:12.273Z,100978.28
2024-05-09T14:10:26.232Z,100969.89
2024-05-09T14:15:37.803Z,100961.89
2024-05-09T14:20:44.662Z,100957.29
2024-05-09T14:25:54.397Z,100954.41
2024-05-09T14:31:04.523Z,100952.52
2024-05-09T14:36:11.948Z,100948.67
2024-05-09T14:41:18.746Z,100947.41
2024-05-09T14:46:25.945Z,100943.42
2024-05-09T14:51:36.470Z,100934.59
2024-05-09T14:56:43.672Z,100931.27
2024-05-09T15:01:50.368Z,100922.95
2024-05-09T15:06:57.415Z,100914.59
2024-05-09T15:12:04.398Z,100911.58
2024-05-09T15:17:12.003Z,100909.31
2024-05-09T15:22:19.586Z,100910.77
2024-05-09T15:27:26.420Z,100903.71
2024-05-09T15:32:33.214Z,100895.34
2024-05-09T15:37:40.053Z,100890.89
2024-05-09T15:42:46.707Z,100881.55
2024-05-09T15:47:53.391Z,100875.89
2024-05-09T15:53:00.177Z,100872.10
2024-05-09T15:58:07.912Z,100869.45
2024-05-09T16:03:15.563Z,100862.90
2024-05-09T16:08:21.440Z,100870.65
2024-05-09T16:13:28.073Z,100869.56
2024-05-09T16:18:34.816Z,100867.52
2024-05-09T16:23:41.678Z,100861.69
2024-05-09T16:28:49.088Z,100853.85
2024-05-09T16:33:56.087Z,100853.39
2024-05-09T16:39:03.042Z,100853.52
2024-05-09T16:44:09.731Z,100852.52
2024-05-09T16:49:16.435Z,100848.84
2024-05-09T16:54:23.363Z,100845.37
2024-05-09T16:59:30.314Z,100848.92
2024-05-09T17:04:37.064Z,100852.18
2024-05-09T17:09:44.265Z,100853.48
2024-05-09T17:14:50.978Z,100853.41
2024-05-09T17:19:57.566Z,100850.64
2024-05-09T17:25:05.503Z,100851.95
2024-05-09T17:30:17.936Z,100852.85
2024-05-09T17:35:32.164Z,100855.88
2024-05-09T17:40:39.559Z,100853.22
2024-05-09T17:45:47.306Z,100853.50
2024-05-09T17:50:53.898Z,100855.98
2024-05-09T17:56:01.369Z,100856.38
2024-05-09T18:01:08.315Z,100856.07
2024-05-09T18:06:16.436Z,100859.08
2024-05-09T18:11:23.739Z,100857.98
2024-05-09T18:16:30.546Z,100857.66
2024-05-09T18:21:37.552Z,100862.02
2024-05-09T18:26:44.268Z,100864.21
2024-05-09T18:31:50.896Z,100863.25
2024-05-09T18:36:58.246Z,100866.55
2024-05-09T18:42:05.711Z,100871.73
2024-05-09T18:47:12.940Z,100875.88
2024-05-09T18:52:20.732Z,100880.41
2024-05-09T18:57:27.498Z,100879.34
2024-05-09T19:02:34.739Z,100885.97
2024-05-09T19:07:42.725Z,100892.52
2024-05-09T19:12:50.477Z,100897.68
2024-05-09T19:17:57.762Z,100900.49
2024-05-09T19:23:05.429Z,100901.11
2024-05-09T19:28:12.405Z,100906.41
2024-05-09T19:33:19.245Z,100911.77
2024-05-09T19:38:26.059Z,100913.32
2024-05-09T19:43:35.890Z,100918.88
2024-05-09T19:48:43.501Z,100911.45
2024-05-09T19:53:56.259Z,100914.34
2024-05-09T19:59:03.265Z,100915.67
2024-05-09T20:04:10.008Z,100917.89
2024-05-09T20:09:16.732Z,100916.65
2024-05-09T20:14:23.467Z,100918.91
2024-05-09T20:19:30.405Z,100918.83
2024-05-09T20:24:37.284Z,100921.75
2024-05-09T20:29:44.373Z,100919.83
2024-05-09T20:34:51.959Z,100918.58
2024-05-09T20:39:58.711Z,100920.73
2024-05-09T20:45:06.069Z,100917.15
2024-05-09T20:50:23.056Z,100919.38
2024-05-09T20:55:35.495Z,100919.42
2024-05-09T21:00:44.798Z,100924.25
2024-05-09T21:05:53.340Z,100924.24
2024-05-09T21:11:00.145Z,100925.38
2024-05-09T21:16:08.194Z,100928.02
2024-05-09T21:21:14.975Z,100931.89
2024-05-09T21:26:23.666Z,100927.39
2024-05-09T21:31:30.388Z,100927.66
2024-05-09T21:36:37.244Z,100923.48
2024-05-09T21:41:43.915Z,100919.46
2024-05-09T21:46:50.538Z,100918.70
2024-05-09T21:51:57.230Z,100919.29
2024-05-09T21:57:06.339Z,100920.02
2024-05-09T22:02:13.232Z,100920.39
2024-05-09T22:07:20.086Z,100920.77
2024-05-09T22:12:26.966Z,100919.41
2024-05-09T22:17:34.002Z,100918.75
2024-05-09T22:22:41.422Z,100921.34
2024-05-09T22:27:49.248Z,100922.88
2024-05-09T22:32:56.095Z,100922.39
2024-05-09T22:38:03.281Z,100921.20
2024-05-09T22:43:10.307Z,100924.27
2024-05-09T22:48:17.380Z,100919.15
2024-05-09T22:53:25.916Z,100921.36
2024-05-09T22:58:32.963Z,100919.14
2024-05-09T23:03:41.437Z,100918.10
2024-05-09T23:08:48.337Z,100915.37
2024-05-09T23:13:55.021Z,100912.11
2024-05-09T23:19:01.917Z,100907.27
2024-05-09T23:24:08.954Z,100903.52
2024-05-09T23:29:16.158Z,100897.70
2024-05-09T23:34:22.992Z,100899.21
2024-05-09T23:39:29.937Z,100898.34
2024-05-09T23:44:36.678Z,100898.48
2024-05-09T23:49:43.492Z,100894.19
2024-05-09T23:54:50.366Z,100889.56
2024-05-09T23:59:59.987Z,100891.41
